affrc.go.jp alexa rank chart, affrc.go.jp alexa rank daily changes

affrc.go.jp alexa rank chart, affrc.go.jp alexa rank daily changes

affrc.go.jp
Actual rank:
41 087

RANK HISTORY

Date Rank Diff
2018/05/26 41 087 -66 610
2018/05/25 107 697 +45 841
2018/05/24 61 856 +12 846
2018/05/23 49 010 -19 794
2018/05/22 68 804 -56 067
2018/05/21 124 871 +70 650
2018/05/20 54 221 -15 490
2018/05/19 69 711 +19 446
2018/05/18 50 265 +11 898
2018/05/17 38 367 -19 589
2018/05/16 57 956 -8 783
2018/05/15 66 739 +5 377
2018/05/14 61 362 +7 176
2018/05/13 54 186 +18 860
2018/05/12 35 326 -102 981
2018/05/11 138 307 +102 254
2018/05/10 36 053 -11 705
2018/05/09 47 758 -163 743
2018/05/08 211 501 +101 496
2018/05/07 110 005 +37 983
2018/05/06 72 022 -604 348
2018/05/05 676 370 +383 272
2018/05/04 293 098 +165 457
2018/05/03 127 641 +735
2018/05/02 126 906 -287 165
2018/04/30 414 071 +388 164
2018/04/29 25 907 +793
2018/04/28 25 114 -82 930
2018/04/27 108 044 +72 666
2018/04/26 35 378 +8 068
2018/04/25 27 310 -21 480
2018/04/24 48 790 -59 254
2018/04/23 108 044 +71 715
2018/04/22 36 329 -23 021
2018/04/21 59 350 +15 303
2018/04/20 44 047 -281 986
2018/04/19 326 033 +288 805
2018/04/18 37 228 -66 864
2018/04/17 104 092 -661 024
2018/04/16 765 116 +708 087
2018/04/15 57 029 +12 004
2018/04/14 45 025 -799
2018/04/13 45 824 -14 661
2018/04/12 60 485 -15 972
2018/04/11 76 457 -50 852
2018/04/10 127 309 +55 873
2018/04/09 71 436 -1 058
2018/04/08 72 494 -13 571
2018/04/07 86 065 +62 413
2018/04/06 23 652 -27 699
2018/04/05 51 351 +4 693
2018/04/04 46 658 +6 689
2018/04/03 39 969 -7 848
2018/04/02 47 817 -33 761
2018/04/01 81 578 +53 832
2018/03/31 27 746 -4 519
2018/03/30 32 265 -16 610
2018/03/29 48 875 -1 083
2018/03/28 49 958 -353 196
2018/03/27 403 154

WIDGET FOR YOUR SITE

DOMAINS WITH THE NEAREST RANK

Domain Rank
iwin.com 41 082
uslugio.com 41 083
jav555.net 41 084
bestjobs.eu 41 085
novostidni.xyz 41 086
affrc.go.jp 41 087
pefilme.net 41 088
humankinetics.com 41 089
tvhvideo.com 41 090
finosity.com 41 091
chevrolet.com.cn 41 092

DOMAINS WITH THE NEAREST RANK BY TLD .go.jp

Domain Rank
mof.go.jp 33 583
nict.go.jp 33 646
e-gov.go.jp 34 025
nims.go.jp 35 120
smrj.go.jp 36 351
affrc.go.jp 41 087
stat.go.jp 41 145
jnto.go.jp 41 407
wam.go.jp 43 439
nies.go.jp 44 624
ipa.go.jp 44 918